Time;durP1;ratioP1;P1;durP2;ratioP2;P2;SDS_P1;SDS_P2;PMS_P1;PMS_P2;Temp;Humidity;BMP_temperature;BMP_pressure;BME280_temperature;BME280_humidity;BME280_pressure;Samples;Min_cycle;Max_cycle;Signal;HPM_P1;HPM_P2
2021/11/30 00:03:41;;;;;;;1999.90;999.90;;;;;;;5.19;76.78;100252.31;15625053;28;20084;-67
2021/11/30 00:11:13;;;;;;;1999.90;999.90;;;;;;;4.82;78.25;100268.00;15624688;28;20510;-65
2021/11/30 00:18:47;;;;;;;1999.90;999.90;;;;;;;4.78;78.33;100260.59;15570932;28;20140;-65
2021/11/30 00:26:20;;;;;;;1999.90;999.90;;;;;;;5.21;76.20;100239.84;15563799;28;20049;-65
2021/11/30 00:33:55;;;;;;;1999.90;999.90;;;;;;;4.85;77.04;100234.19;15562041;28;20046;-63
2021/11/30 00:41:27;;;;;;;1999.90;999.90;;;;;;;4.98;75.95;100231.75;15559910;28;20454;-66
2021/11/30 00:49:04;;;;;;;1999.90;999.90;;;;;;;4.65;75.60;100229.06;15587948;28;20099;-66
2021/11/30 00:56:39;;;;;;;1999.90;999.90;;;;;;;4.73;75.86;100222.84;15578288;28;20045;-66
2021/11/30 01:04:13;;;;;;;1999.90;999.90;;;;;;;4.81;74.94;100213.84;15612825;28;20494;-65
2021/11/30 01:11:46;;;;;;;1999.90;999.90;;;;;;;4.62;75.68;100202.88;15622783;28;20054;-66
2021/11/30 01:19:22;;;;;;;1999.90;999.90;;;;;;;4.64;75.88;100200.59;15600736;28;20042;-65
2021/11/30 01:26:55;;;;;;;1999.90;999.90;;;;;;;4.84;74.90;100204.09;15560234;28;20145;-65
2021/11/30 01:34:29;;;;;;;1999.90;999.90;;;;;;;4.69;75.30;100191.41;15559322;28;20149;-66
2021/11/30 01:42:02;;;;;;;1999.90;999.90;;;;;;;4.55;74.96;100168.47;15558614;28;20046;-66
2021/11/30 01:49:37;;;;;;;1999.90;999.90;;;;;;;4.51;75.16;100171.03;15558715;28;20041;-66
2021/11/30 01:57:13;;;;;;;1999.90;999.90;;;;;;;4.60;74.88;100169.19;15609337;28;20045;-66
2021/11/30 02:04:47;;;;;;;1999.90;999.90;;;;;;;4.55;75.10;100166.53;15618647;28;20075;-66
2021/11/30 02:12:21;;;;;;;1999.90;999.90;;;;;;;4.47;75.03;100161.69;15618417;28;20048;-66
2021/11/30 02:19:57;;;;;;;;;;;;;;;4.27;76.36;100145.50;15618540;28;20045;-66
2021/11/30 02:27:30;;;;;;;1999.90;999.90;;;;;;;4.39;75.45;100137.56;15618034;28;20000;-67
2021/11/30 02:35:06;;;;;;;1999.90;999.90;;;;;;;4.34;76.28;100118.31;15617179;28;20048;-66
2021/11/30 02:42:39;;;;;;;1999.90;999.90;;;;;;;4.33;75.86;100091.81;15616070;28;20037;-64
2021/11/30 02:50:13;;;;;;;;;;;;;;;4.49;75.31;100081.28;15616371;28;20129;-64
2021/11/30 02:57:47;;;;;;;1999.90;999.90;;;;;;;4.53;75.09;100066.53;15559543;28;19960;-64
2021/11/30 03:05:22;;;;;;;1999.90;999.90;;;;;;;4.43;75.43;100039.13;15554432;28;20521;-64
2021/11/30 03:12:56;;;;;;;1999.90;999.90;;;;;;;4.38;74.51;100021.84;15555232;28;20396;-64
2021/11/30 03:20:30;;;;;;;1999.90;999.90;;;;;;;4.32;74.35;99993.50;15569623;28;20052;-65
2021/11/30 03:28:04;;;;;;;1999.90;999.90;;;;;;;4.39;74.37;99982.88;15554137;28;20053;-64
2021/11/30 03:35:38;;;;;;;1999.90;999.90;;;;;;;4.22;74.32;99966.13;15552631;28;20053;-64
2021/11/30 03:43:11;;;;;;;1999.90;999.90;;;;;;;4.32;73.41;99949.31;15576514;28;20461;-67
2021/11/30 03:50:45;;;;;;;1999.90;999.90;;;;;;;4.48;73.42;99930.44;15599717;28;20056;-65
2021/11/30 03:58:18;;;;;;;1999.90;999.90;;;;;;;4.29;72.46;99897.47;15577045;28;20049;-66
2021/11/30 04:05:52;;;;;;;1999.90;999.90;;;;;;;4.28;73.13;99879.28;15559968;28;20077;-67
2021/11/30 04:13:25;;;;;;;1999.90;999.90;;;;;;;4.20;72.41;99863.44;15589312;28;20395;-66
2021/11/30 04:21:00;;;;;;;1999.90;999.90;;;;;;;4.21;72.51;99843.81;15626966;28;20072;-65
2021/11/30 04:28:33;;;;;;;1999.90;999.90;;;;;;;4.31;72.11;99834.47;15625950;28;20396;-65
2021/11/30 04:36:08;;;;;;;1999.90;999.90;;;;;;;3.87;74.48;99819.47;15624183;28;20513;-65
2021/11/30 04:43:42;;;;;;;1999.90;999.90;;;;;;;3.79;75.63;99798.13;15622857;28;20053;-65
2021/11/30 04:51:17;;;;;;;1999.90;999.90;;;;;;;3.67;76.59;99779.34;15569070;28;20081;-65
2021/11/30 04:58:49;;;;;;;1999.90;999.90;;;;;;;3.50;77.71;99759.03;15561519;28;20054;-67
2021/11/30 05:06:25;;;;;;;1999.90;999.90;;;;;;;3.41;78.54;99737.69;15560795;28;20048;-68
2021/11/30 05:13:58;;;;;;;1999.90;999.90;;;;;;;3.40;78.49;99715.94;15560211;28;20092;-64
2021/11/30 05:21:32;;;;;;;1999.90;999.90;;;;;;;3.43;78.47;99698.78;15559448;28;20141;-65
2021/11/30 05:29:06;;;;;;;1999.90;999.90;;;;;;;3.65;77.51;99687.78;15558810;28;20077;-68
2021/11/30 05:36:40;;;;;;;1999.90;999.90;;;;;;;3.68;77.48;99683.59;15545703;28;20056;-69
2021/11/30 05:44:13;;;;;;;1999.90;999.90;;;;;;;3.67;77.35;99659.91;15557690;28;20046;-66
2021/11/30 05:51:47;;;;;;;1999.90;999.90;;;;;;;3.61;77.69;99630.78;15565998;28;20408;-68
2021/11/30 05:59:21;;;;;;;1999.90;999.90;;;;;;;3.58;78.05;99615.69;15549200;28;20053;-69
2021/11/30 06:06:55;;;;;;;1999.90;999.90;;;;;;;3.56;78.47;99590.38;15599093;28;20033;-68
2021/11/30 06:14:28;;;;;;;1999.90;999.90;;;;;;;3.47;79.11;99553.63;15556976;28;20073;-68
2021/11/30 06:22:04;;;;;;;1999.90;999.90;;;;;;;3.66;78.97;99523.91;15559529;28;20500;-67
2021/11/30 06:29:37;;;;;;;1999.90;999.90;;;;;;;3.40;80.09;99506.38;15616460;28;20068;-69
2021/11/30 06:37:11;;;;;;;1999.90;999.90;;;;;;;3.52;80.05;99501.09;15616000;28;20514;-69
2021/11/30 06:44:46;;;;;;;1999.90;999.90;;;;;;;3.45;80.54;99475.91;15618204;28;20042;-65
2021/11/30 06:52:20;;;;;;;1999.90;999.90;;;;;;;3.59;81.23;99449.06;15617590;28;20045;-67
2021/11/30 06:59:56;;;;;;;1999.90;999.90;;;;;;;3.44;81.42;99425.47;15566143;28;20510;-67
2021/11/30 07:07:34;;;;;;;1999.90;999.90;;;;;;;3.80;81.46;99396.06;15555072;28;20506;-68
2021/11/30 07:15:10;;;;;;;1999.90;999.90;;;;;;;3.68;81.89;99378.19;15553081;28;20045;-67
2021/11/30 07:22:44;;;;;;;1999.90;999.90;;;;;;;3.56;82.60;99358.69;15569704;28;20038;-68
2021/11/30 07:30:17;;;;;;;1999.90;999.90;;;;;;;3.58;82.64;99330.78;15568852;28;20403;-67
2021/11/30 07:37:51;;;;;;;1999.90;999.90;;;;;;;3.61;83.02;99319.91;15553386;28;20125;-67
2021/11/30 07:45:24;;;;;;;1999.90;999.90;;;;;;;3.46;83.27;99306.56;15563812;28;20046;-68
2021/11/30 07:52:58;;;;;;;1999.90;999.90;;;;;;;3.69;82.68;99291.53;15560591;28;20441;-68
2021/11/30 08:00:31;;;;;;;1999.90;999.90;;;;;;;3.43;83.19;99291.44;15597246;28;20108;-68
2021/11/30 08:08:06;;;;;;;;;;;;;;;3.61;83.54;99277.72;15573831;28;20046;-68
2021/11/30 08:15:39;;;;;;;1999.90;999.90;;;;;;;3.80;83.01;99252.59;15605632;28;20493;-67
2021/11/30 08:23:14;;;;;;;1999.90;999.90;;;;;;;3.81;82.71;99235.72;15625074;28;20108;-68
2021/11/30 08:30:50;;;;;;;1999.90;999.90;;;;;;;3.80;82.55;99216.72;15596791;28;20351;-68
2021/11/30 08:38:25;;;;;;;1999.90;999.90;;;;;;;3.86;83.08;99185.91;15561360;28;20103;-68
2021/11/30 08:45:58;;;;;;;1999.90;999.90;;;;;;;3.94;82.91;99170.44;15577786;28;20053;-68
2021/11/30 08:53:34;;;;;;;1999.90;999.90;;;;;;;3.94;83.32;99159.41;15561209;28;20414;-68
2021/11/30 09:01:08;;;;;;;1999.90;999.90;;;;;;;4.00;83.65;99136.03;15560161;28;20046;-67
2021/11/30 09:08:42;;;;;;;1999.90;999.90;;;;;;;4.23;83.35;99133.84;15602197;28;20049;-67
2021/11/30 09:16:16;;;;;;;1999.90;999.90;;;;;;;4.33;82.79;99127.97;15606226;28;20050;-68
2021/11/30 09:23:50;;;;;;;;;;;;;;;4.34;83.75;99118.56;15547338;28;20069;-69
2021/11/30 09:31:23;;;;;;;1999.90;999.90;;;;;;;4.14;83.82;99108.22;15568659;28;20028;-68
2021/11/30 09:38:57;;;;;;;1999.90;999.90;;;;;;;4.30;84.07;99090.81;15619069;28;20049;-68
2021/11/30 09:46:30;;;;;;;1999.90;999.90;;;;;;;4.31;84.27;99086.09;15573638;28;20130;-68
2021/11/30 09:54:05;;;;;;;1999.90;999.90;;;;;;;4.50;84.51;99072.69;15559067;28;20077;-67
2021/11/30 10:01:38;;;;;;;1999.90;999.90;;;;;;;4.58;84.40;99058.00;15605997;28;20049;-68
2021/11/30 10:09:21;;;;;;;1999.90;999.90;;;;;;;5.06;84.08;99028.28;15617982;28;20068;-68
2021/11/30 10:17:16;;;;;;;1999.90;999.90;;;;;;;5.07;84.77;99036.22;15617913;28;20124;-68
2021/11/30 10:24:50;;;;;;;1999.90;999.90;;;;;;;5.18;85.52;99039.41;15617373;28;20037;-68
2021/11/30 10:32:34;;;;;;;1999.90;999.90;;;;;;;5.50;84.97;99026.75;15594934;28;20057;-68
2021/11/30 10:40:12;;;;;;;1999.90;999.90;;;;;;;5.69;84.78;99029.81;15554817;28;20050;-67
2021/11/30 10:47:45;;;;;;;1999.90;999.90;;;;;;;5.68;85.90;99021.84;15555525;28;20503;-67
2021/11/30 10:55:20;;;;;;;1999.90;999.90;;;;;;;5.72;86.63;99006.97;15554040;28;20119;-68
2021/11/30 11:03:01;;;;;;;1999.90;999.90;;;;;;;6.19;85.89;98998.34;15552937;28;20137;-69
2021/11/30 11:10:38;;;;;;;1999.90;999.90;;;;;;;6.20;85.73;99002.72;15619260;22;20045;-59
2021/11/30 11:18:23;;;;;;;1999.90;999.90;;;;;;;6.35;85.82;98992.91;15606582;28;20037;-59
2021/11/30 11:25:57;;;;;;;1999.90;999.90;;;;;;;6.52;85.04;98992.66;15607887;28;20277;-58
2021/11/30 11:33:30;;;;;;;1999.90;999.90;;;;;;;6.48;85.45;98980.69;15579760;28;20042;-59
2021/11/30 11:41:04;;;;;;;1999.90;999.90;;;;;;;6.53;85.11;98952.72;15608748;28;20103;-60
2021/11/30 11:48:38;;;;;;;1999.90;999.90;;;;;;;6.74;84.25;98951.75;15591605;28;20054;-60
2021/11/30 11:56:16;;;;;;;1999.90;999.90;;;;;;;6.69;85.46;98944.50;15606669;28;20046;-60
2021/11/30 12:03:57;;;;;;;1999.90;999.90;;;;;;;6.78;85.65;98936.06;15607221;28;20533;-60
2021/11/30 12:11:39;;;;;;;1999.90;999.90;;;;;;;6.85;85.28;98939.03;15609182;28;20091;-61
2021/11/30 12:19:25;;;;;;;1999.90;999.90;;;;;;;7.01;85.39;98967.63;15607419;28;20091;-58
2021/11/30 12:27:01;;;;;;;1999.90;999.90;;;;;;;6.87;84.57;98953.34;15611367;28;20382;-58
2021/11/30 12:34:38;;;;;;;1999.90;999.90;;;;;;;6.64;82.44;98922.56;15600640;28;20045;-60
2021/11/30 12:42:13;;;;;;;1999.90;999.90;;;;;;;6.82;79.90;98945.28;15618042;28;20439;-61
2021/11/30 12:49:46;;;;;;;1999.90;999.90;;;;;;;7.24;79.58;98943.72;15618840;28;20493;-59
2021/11/30 12:57:41;;;;;;;;;;;;;;;7.09;78.61;98938.16;15616690;28;20125;-57
2021/11/30 13:05:23;;;;;;;1999.90;999.90;;;;;;;7.44;77.67;98939.13;15617813;28;19921;-59
2021/11/30 13:13:00;;;;;;;1999.90;999.90;;;;;;;7.57;77.39;98950.16;15616639;28;20049;-60
2021/11/30 13:20:33;;;;;;;1999.90;999.90;;;;;;;7.52;77.00;98954.81;15615399;28;20467;-57
2021/11/30 13:28:14;;;;;;;1999.90;999.90;;;;;;;7.70;76.03;98965.56;15615351;28;20490;-60
2021/11/30 13:35:52;;;;;;;1999.90;999.90;;;;;;;7.76;76.04;98983.59;15615199;28;20064;-61
2021/11/30 13:43:29;;;;;;;1999.90;999.90;;;;;;;7.96;76.50;99006.72;15610603;28;20129;-61
2021/11/30 13:51:04;;;;;;;1999.90;999.90;;;;;;;7.59;76.39;99008.88;15604075;28;20584;-59
2021/11/30 13:58:44;;;;;;;1999.90;999.90;;;;;;;7.46;77.31;99008.94;15612008;28;20124;-60
2021/11/30 14:06:38;;;;;;;1999.90;999.90;;;;;;;7.48;75.90;99028.00;15613439;28;20053;-53
2021/11/30 14:14:13;;;;;;;1999.90;999.90;;;;;;;7.67;74.33;99027.34;15613340;28;20047;-59
2021/11/30 14:21:57;;;;;;;1999.90;999.90;;;;;;;7.53;71.97;99033.31;15611964;28;20129;-55
2021/11/30 14:29:37;;;;;;;1999.90;999.90;;;;;;;7.76;69.46;99047.44;15612855;28;20128;-62
2021/11/30 14:37:18;;;;;;;1999.90;999.90;;;;;;;7.59;67.47;99047.75;15613776;28;20111;-58
2021/11/30 14:45:13;;;;;;;1999.90;999.90;;;;;;;7.71;67.10;99056.00;15610846;28;20061;-56
2021/11/30 14:52:49;;;;;;;1999.90;999.90;;;;;;;7.51;68.61;99072.53;15610526;28;20132;-55
2021/11/30 15:00:35;;;;;;;1999.90;999.90;;;;;;;7.65;68.15;99074.91;15612380;28;20045;-61
2021/11/30 15:08:30;;;;;;;1999.90;999.90;;;;;;;7.37;67.86;99085.97;15612163;28;20248;-55
2021/11/30 15:16:05;;;;;;;1999.90;999.90;;;;;;;7.52;67.77;99101.91;15599675;28;20642;-57
2021/11/30 15:23:38;;;;;;;1999.90;999.90;;;;;;;7.47;67.36;99104.09;15610527;28;20136;-60
2021/11/30 15:31:12;;;;;;;1999.90;999.90;;;;;;;7.42;66.73;99101.59;15608303;28;20059;-56
2021/11/30 15:38:45;;;;;;;1999.90;999.90;;;;;;;7.60;66.44;99127.06;15607538;28;20457;-58
2021/11/30 15:46:20;;;;;;;1999.90;999.90;;;;;;;7.44;66.28;99125.03;15608395;28;20073;-56
2021/11/30 15:53:54;;;;;;;1999.90;999.90;;;;;;;7.59;65.45;99151.25;15609929;28;20056;-54
2021/11/30 16:01:28;;;;;;;1999.90;999.90;;;;;;;7.56;65.41;99156.72;15612948;28;20127;-58
2021/11/30 16:09:01;;;;;;;1999.90;999.90;;;;;;;7.65;65.08;99174.03;15603263;28;20136;-54
2021/11/30 16:16:35;;;;;;;1999.90;999.90;;;;;;;7.67;65.09;99180.84;15621099;28;20060;-61
2021/11/30 16:24:09;;;;;;;1999.90;999.90;;;;;;;7.68;64.90;99184.44;15620354;28;20129;-60
2021/11/30 16:31:43;;;;;;;1999.90;999.90;;;;;;;7.70;63.72;99207.09;15618317;28;20666;-54
2021/11/30 16:39:18;;;;;;;1999.90;999.90;;;;;;;7.67;63.56;99239.16;15617584;28;20041;-58
2021/11/30 16:46:53;;;;;;;1999.90;999.90;;;;;;;7.69;62.45;99258.22;15619123;28;20107;-57
2021/11/30 16:54:27;;;;;;;1999.90;999.90;;;;;;;7.38;62.43;99273.50;15555397;28;20124;-54
2021/11/30 17:02:01;;;;;;;1999.90;999.90;;;;;;;7.22;62.39;99284.50;15563615;28;20064;-57
2021/11/30 17:09:34;;;;;;;1999.90;999.90;;;;;;;6.98;62.44;99281.66;15630662;22;20057;-66
2021/11/30 17:17:08;;;;;;;1999.90;999.90;;;;;;;6.88;63.09;99305.13;15616700;28;20068;-65
2021/11/30 17:24:50;;;;;;;1999.90;999.90;;;;;;;6.93;63.31;99315.19;15619910;28;20045;-67
2021/11/30 17:32:25;;;;;;;1999.90;999.90;;;;;;;6.97;62.93;99321.66;15622204;28;20081;-66
2021/11/30 17:39:58;;;;;;;1999.90;999.90;;;;;;;6.97;62.68;99340.25;15658064;28;20128;-66
2021/11/30 17:47:32;;;;;;;1999.90;999.90;;;;;;;6.86;62.71;99360.09;15620614;28;20087;-66
2021/11/30 17:55:06;;;;;;;1999.90;999.90;;;;;;;6.75;62.95;99369.97;15618079;28;20498;-66
2021/11/30 18:02:41;;;;;;;1999.90;999.90;;;;;;;6.72;62.57;99383.72;15601645;28;20045;-67
2021/11/30 18:10:18;;;;;;;1999.90;999.90;;;;;;;6.68;62.64;99396.66;15617788;28;20107;-67
2021/11/30 18:17:53;;;;;;;1999.90;999.90;;;;;;;6.92;62.59;99419.75;15621759;28;20632;-64
2021/11/30 18:25:26;;;;;;;1999.90;999.90;;;;;;;6.94;62.40;99461.81;15600816;28;20049;-66
2021/11/30 18:33:01;;;;;;;1999.90;999.90;;;;;;;6.94;62.79;99447.94;15617883;28;20132;-65
2021/11/30 18:40:33;;;;;;;1999.90;999.90;;;;;;;6.75;63.43;99478.09;15612902;28;20085;-66
2021/11/30 18:48:08;;;;;;;1999.90;999.90;;;;;;;6.72;62.95;99487.09;15607988;28;20080;-66
2021/11/30 18:55:41;;;;;;;1999.90;999.90;;;;;;;6.62;62.74;99495.81;15615727;28;20050;-65
2021/11/30 19:03:15;;;;;;;1999.90;999.90;;;;;;;6.33;63.29;99524.34;15615614;28;20045;-65
2021/11/30 19:10:48;;;;;;;1999.90;999.90;;;;;;;6.50;62.54;99545.63;15599506;28;20378;-65
2021/11/30 19:18:23;;;;;;;1999.90;999.90;;;;;;;6.41;62.94;99558.69;15599142;28;20110;-66
2021/11/30 19:25:57;;;;;;;1999.90;999.90;;;;;;;6.48;63.08;99579.22;15616473;28;20099;-66
2021/11/30 19:33:32;;;;;;;1999.90;999.90;;;;;;;6.72;63.02;99609.06;15602986;28;20417;-66
2021/11/30 19:41:06;;;;;;;1999.90;999.90;;;;;;;6.72;62.78;99627.66;15609663;28;20050;-66
2021/11/30 19:48:40;;;;;;;;;;;;;;;6.92;62.76;99647.13;15627744;28;20049;-66
2021/11/30 19:56:14;;;;;;;1999.90;999.90;;;;;;;6.71;63.08;99656.53;15632155;28;19921;-65
2021/11/30 20:11:40;;;;;;;1999.90;999.90;;;;;;;6.72;62.70;99689.47;15628808;28;20402;-65
2021/11/30 20:19:14;;;;;;;1999.90;999.90;;;;;;;6.66;63.00;99699.91;15610261;28;20033;-65
2021/11/30 20:26:47;;;;;;;1999.90;999.90;;;;;;;6.38;62.52;99709.00;15621827;28;20049;-65
2021/11/30 20:34:22;;;;;;;1999.90;999.90;;;;;;;6.69;62.50;99730.91;15616593;28;20116;-65
2021/11/30 20:41:55;;;;;;;1999.90;999.90;;;;;;;6.66;62.06;99751.78;15623099;28;20069;-65
2021/11/30 20:49:29;;;;;;;1999.90;999.90;;;;;;;6.70;62.80;99763.84;15623214;28;20493;-65
2021/11/30 20:57:03;;;;;;;1999.90;999.90;;;;;;;6.83;61.83;99781.44;15624062;28;20037;-65
2021/11/30 21:04:40;;;;;;;;;;;;;;;6.80;61.70;99788.44;15624163;28;20099;-65
2021/11/30 21:12:19;;;;;;;1999.90;999.90;;;;;;;6.64;61.55;99801.19;15623189;28;19925;-66
2021/11/30 21:19:56;;;;;;;1999.90;999.90;;;;;;;6.56;62.36;99832.50;15622467;28;20045;-65
2021/11/30 21:27:29;;;;;;;1999.90;999.90;;;;;;;6.46;61.74;99830.91;15622768;28;20037;-65
2021/11/30 21:35:05;;;;;;;1999.90;999.90;;;;;;;6.71;61.98;99836.75;15621418;28;20042;-65
2021/11/30 21:42:40;;;;;;;1999.90;999.90;;;;;;;6.53;62.11;99828.44;15621038;28;20120;-65
2021/11/30 21:50:15;;;;;;;1999.90;999.90;;;;;;;6.58;61.58;99831.06;15619662;28;20140;-65
2021/11/30 21:57:48;;;;;;;1999.90;999.90;;;;;;;6.54;61.97;99843.94;15619097;28;20099;-65
2021/11/30 22:05:24;;;;;;;1999.90;999.90;;;;;;;6.50;62.38;99853.22;15617809;28;20073;-66
2021/11/30 22:12:57;;;;;;;1999.90;999.90;;;;;;;6.25;63.18;99860.38;15607350;28;20049;-66
2021/11/30 22:20:32;;;;;;;1999.90;999.90;;;;;;;6.47;62.34;99876.06;15618146;28;20047;-65
2021/11/30 22:28:05;;;;;;;1999.90;999.90;;;;;;;6.33;62.88;99878.97;15619135;28;20494;-65
2021/11/30 22:35:40;;;;;;;1999.90;999.90;;;;;;;6.19;62.60;99881.91;15617502;28;20136;-65
2021/11/30 22:43:12;;;;;;;1999.90;999.90;;;;;;;6.45;62.38;99898.53;15617460;28;20430;-65
2021/11/30 22:50:47;;;;;;;1999.90;999.90;;;;;;;6.38;63.10;99908.50;15600289;28;20041;-65
2021/11/30 22:58:20;;;;;;;1999.90;999.90;;;;;;;6.39;62.77;99916.47;15617589;28;20057;-65
2021/11/30 23:05:55;;;;;;;1999.90;999.90;;;;;;;6.28;63.07;99909.63;15617496;22;20061;-77
2021/11/30 23:13:28;;;;;;;1999.90;999.90;;;;;;;6.13;64.03;99915.59;15712047;28;20048;-77
2021/11/30 23:21:03;;;;;;;1999.90;999.90;;;;;;;5.87;64.60;99921.88;15683196;22;20532;-81
2021/11/30 23:28:37;;;;;;;1999.90;999.90;;;;;;;5.68;65.34;99926.84;15616126;28;20041;-80
2021/11/30 23:36:11;;;;;;;1999.90;999.90;;;;;;;5.47;65.76;99910.00;15606371;28;20137;-81
2021/11/30 23:43:44;;;;;;;1999.90;999.90;;;;;;;5.30;65.63;99920.97;15626832;28;20041;-81
2021/11/30 23:51:19;;;;;;;1999.90;999.90;;;;;;;5.25;66.23;99935.75;15645047;28;20038;-78
2021/11/30 23:58:52;;;;;;;1999.90;999.90;;;;;;;5.21;66.60;99918.16;15649511;28;20057;-82
